Celebrity Century — 9HJI9 — position and weather

sailwx.info

Track history (hours):
 
Tides and Currents Weather Stations Pressure Air Temp Water Temp Dewpoint Dewpoint Depression Visibility Wind Speed Wind Dir Waves Ship Positions

Celebrity Century

Last reported at 2020-Sep-25 14:16 UTC. Time now 2020-Sep-25 15:41 UTC.
Position N 50°36' W 002°22'.

Length 247 m; draft 8 m.

Type: Ship. MMSI: 249054000.

Date/timePositionNaut miles runAvg speedWind from/ knotsBaromVisibWave heightAir tempDewpointWater temp
2020-Sep-25 14:16N 50°36' W 002°22'0 0.1
2020-Sep-25 13:22N 50°36' W 002°22'0 0.0
2020-Sep-25 08:28N 50°36' W 002°22'0 0.0
2020-Sep-25 07:28N 50°37' W 002°22'0 0.1
2020-Sep-25 06:58N 50°37' W 002°22'0 0.0
2020-Sep-25 05:55N 50°37' W 002°22'0 0.0
2020-Sep-25 03:49N 50°37' W 002°22'0 0.0
2020-Sep-23 21:04N 50°37' W 002°22'0 0.0
2020-Sep-23 19:22N 50°37' W 002°22'0 0.0
2020-Sep-23 14:43N 50°37' W 002°22'0 0.0
2020-Sep-23 11:34N 50°37' W 002°22'0 0.0
2020-Sep-22 15:07N 50°37' W 002°22'0 0.0
2020-Sep-22 11:55N 50°37' W 002°22'0 0.0
2020-Sep-22 10:58N 50°37' W 002°22'0 0.0
2020-Sep-22 09:49N 50°36' W 002°22'0 0.0
2020-Sep-22 07:58N 50°37' W 002°22'0 0.0
2020-Sep-22 07:28N 50°37' W 002°22'0 0.0
2020-Sep-22 06:58N 50°36' W 002°22'0 0.0
2020-Sep-22 04:58N 50°36' W 002°23'0 0.0
2020-Sep-22 03:58N 50°36' W 002°23'0 0.0
2020-Sep-22 03:28N 50°36' W 002°23'0 0.0
2020-Sep-21 22:58N 50°36' W 002°23'0 0.0
2020-Sep-21 21:58N 50°36' W 002°23'0 0.0
2020-Sep-21 21:28N 50°36' W 002°23'0 0.0
2020-Sep-21 20:28N 50°36' W 002°23'0 0.0
2020-Sep-21 17:28N 50°36' W 002°23'0 0.0
2020-Sep-21 15:58N 50°36' W 002°23'0 0.0
2020-Sep-21 13:58N 50°36' W 002°23'0 0.0
2020-Sep-21 10:28N 50°36' W 002°23'0 0.0
2020-Sep-21 08:28N 50°36' W 002°23'0 0.0
2020-Sep-21 07:28N 50°36' W 002°23'0 0.0
2020-Sep-21 05:28N 50°36' W 002°23'0 0.0
2020-Sep-21 01:28N 50°36' W 002°23'0 0.0
2020-Sep-21 00:28N 50°36' W 002°23'0 0.1
2020-Sep-20 23:28N 50°36' W 002°23'0 0.0
2020-Sep-20 19:25N 50°36' W 002°23'0 0.0
2020-Sep-20 12:22N 50°36' W 002°23'0 0.0
2020-Sep-20 11:58N 50°36' W 002°23'0 0.1
2020-Sep-20 11:28N 50°36' W 002°23'1 0.1
2020-Sep-19 23:55N 50°36' W 002°23'0 0.0
2020-Sep-19 20:28N 50°36' W 002°23'0 0.0
2020-Sep-19 18:58N 50°36' W 002°23'0 0.0
2020-Sep-19 17:28N 50°36' W 002°23'0 0.0
2020-Sep-19 13:33N 50°36' W 002°23'15 6.0
2020-Sep-19 11:00N 50°24' W 002°38'7 6.6
2020-Sep-19 10:00N 50°19' W 002°44'19 7.4
2020-Sep-19 07:29N 50°26' W 002°16'4 9.0
2020-Sep-19 07:00N 50°30' W 002°17'8 1.4
2020-Sep-19 01:23N 50°37' W 002°23'0 0.0
2020-Sep-18 19:44N 50°37' W 002°23'0 0.0
2020-Sep-18 18:59N 50°37' W 002°23'0 0.1
2020-Sep-18 17:53N 50°37' W 002°23'0 0.0
2020-Sep-18 14:59N 50°37' W 002°23'1 0.2
2020-Sep-18 10:28N 50°36' W 002°24'1 0.3
2020-Sep-18 06:53N 50°35' W 002°23'0 0.0
2020-Sep-18 04:31N 50°36' W 002°23'0 0.0
2020-Sep-18 02:55N 50°35' W 002°23'0 0.0
2020-Sep-18 01:07N 50°35' W 002°23'0 0.0
2020-Sep-17 19:29N 50°36' W 002°23'0 0.0
2020-Sep-17 16:59N 50°36' W 002°23'0 0.0
2020-Sep-17 15:26N 50°36' W 002°23'0 0.0
2020-Sep-17 14:29N 50°36' W 002°23'0 0.0
2020-Sep-17 11:59N 50°36' W 002°23'0 0.0
2020-Sep-17 07:59N 50°36' W 002°23'0 0.0
2020-Sep-17 07:23N 50°36' W 002°23'0 0.1
2020-Sep-17 06:59N 50°36' W 002°23'0 0.0
2020-Sep-17 03:11N 50°36' W 002°23'0 0.0
2020-Sep-17 01:26N 50°36' W 002°23'0 0.0
2020-Sep-17 00:11N 50°36' W 002°23'0 0.0
2020-Sep-16 20:02N 50°36' W 002°23'0 0.0
2020-Sep-16 18:26N 50°36' W 002°23'0 0.0
2020-Sep-16 17:47N 50°36' W 002°23'0 0.0
2020-Sep-16 16:59N 50°36' W 002°23'0 0.0
2020-Sep-16 16:29N 50°36' W 002°23'0 0.0
2020-Sep-16 06:58N 50°36' W 002°22'0 0.0
2020-Sep-16 04:58N 50°36' W 002°22'0 0.0
2020-Sep-16 04:25N 50°36' W 002°23'0 0.0
2020-Sep-16 03:58N 50°36' W 002°22'0 0.0
2020-Sep-16 02:58N 50°36' W 002°23'0 0.0
2020-Sep-15 23:58N 50°36' W 002°22'0 0.0
2020-Sep-15 23:28N 50°36' W 002°22'0 0.0
2020-Sep-15 22:25N 50°36' W 002°22'0 0.0
2020-Sep-15 20:28N 50°36' W 002°22'  
Track history (hours):
 
Tides and Currents Weather Stations Pressure Air Temp Water Temp Dewpoint Dewpoint Depression Visibility Wind Speed Wind Dir Waves Ship Positions

Celebrity Century

Last reported at 2020-Sep-25 14:16 UTC. Time now 2020-Sep-25 15:41 UTC.
Position N 50°36' W 002°22'.

Length 247 m; draft 8 m.

Type: Ship. MMSI: 249054000.

Date/timePositionNaut miles runAvg speedWind from/ knotsBaromVisibWave heightAir tempDewpointWater temp
2020-Sep-25 14:16N 50°36' W 002°22'0 0.1
2020-Sep-25 13:22N 50°36' W 002°22'0 0.0
2020-Sep-25 08:28N 50°36' W 002°22'0 0.0
2020-Sep-25 07:28N 50°37' W 002°22'0 0.1
2020-Sep-25 06:58N 50°37' W 002°22'0 0.0
2020-Sep-25 05:55N 50°37' W 002°22'0 0.0
2020-Sep-25 03:49N 50°37' W 002°22'0 0.0
2020-Sep-23 21:04N 50°37' W 002°22'0 0.0
2020-Sep-23 19:22N 50°37' W 002°22'0 0.0
2020-Sep-23 14:43N 50°37' W 002°22'0 0.0
2020-Sep-23 11:34N 50°37' W 002°22'0 0.0
2020-Sep-22 15:07N 50°37' W 002°22'0 0.0
2020-Sep-22 11:55N 50°37' W 002°22'0 0.0
2020-Sep-22 10:58N 50°37' W 002°22'0 0.0
2020-Sep-22 09:49N 50°36' W 002°22'0 0.0
2020-Sep-22 07:58N 50°37' W 002°22'0 0.0
2020-Sep-22 07:28N 50°37' W 002°22'0 0.0
2020-Sep-22 06:58N 50°36' W 002°22'0 0.0
2020-Sep-22 04:58N 50°36' W 002°23'0 0.0
2020-Sep-22 03:58N 50°36' W 002°23'0 0.0
2020-Sep-22 03:28N 50°36' W 002°23'0 0.0
2020-Sep-21 22:58N 50°36' W 002°23'0 0.0
2020-Sep-21 21:58N 50°36' W 002°23'0 0.0
2020-Sep-21 21:28N 50°36' W 002°23'0 0.0
2020-Sep-21 20:28N 50°36' W 002°23'0 0.0
2020-Sep-21 17:28N 50°36' W 002°23'0 0.0
2020-Sep-21 15:58N 50°36' W 002°23'0 0.0
2020-Sep-21 13:58N 50°36' W 002°23'0 0.0
2020-Sep-21 10:28N 50°36' W 002°23'0 0.0
2020-Sep-21 08:28N 50°36' W 002°23'0 0.0
2020-Sep-21 07:28N 50°36' W 002°23'0 0.0
2020-Sep-21 05:28N 50°36' W 002°23'0 0.0
2020-Sep-21 01:28N 50°36' W 002°23'0 0.0
2020-Sep-21 00:28N 50°36' W 002°23'0 0.1
2020-Sep-20 23:28N 50°36' W 002°23'0 0.0
2020-Sep-20 19:25N 50°36' W 002°23'0 0.0
2020-Sep-20 12:22N 50°36' W 002°23'0 0.0
2020-Sep-20 11:58N 50°36' W 002°23'0 0.1
2020-Sep-20 11:28N 50°36' W 002°23'1 0.1
2020-Sep-19 23:55N 50°36' W 002°23'0 0.0
2020-Sep-19 20:28N 50°36' W 002°23'0 0.0
2020-Sep-19 18:58N 50°36' W 002°23'0 0.0
2020-Sep-19 17:28N 50°36' W 002°23'0 0.0
2020-Sep-19 13:33N 50°36' W 002°23'15 6.0
2020-Sep-19 11:00N 50°24' W 002°38'7 6.6
2020-Sep-19 10:00N 50°19' W 002°44'19 7.4
2020-Sep-19 07:29N 50°26' W 002°16'4 9.0
2020-Sep-19 07:00N 50°30' W 002°17'8 1.4
2020-Sep-19 01:23N 50°37' W 002°23'0 0.0
2020-Sep-18 19:44N 50°37' W 002°23'0 0.0
2020-Sep-18 18:59N 50°37' W 002°23'0 0.1
2020-Sep-18 17:53N 50°37' W 002°23'0 0.0
2020-Sep-18 14:59N 50°37' W 002°23'1 0.2
2020-Sep-18 10:28N 50°36' W 002°24'1 0.3
2020-Sep-18 06:53N 50°35' W 002°23'0 0.0
2020-Sep-18 04:31N 50°36' W 002°23'0 0.0
2020-Sep-18 02:55N 50°35' W 002°23'0 0.0
2020-Sep-18 01:07N 50°35' W 002°23'0 0.0
2020-Sep-17 19:29N 50°36' W 002°23'0 0.0
2020-Sep-17 16:59N 50°36' W 002°23'0 0.0
2020-Sep-17 15:26N 50°36' W 002°23'0 0.0
2020-Sep-17 14:29N 50°36' W 002°23'0 0.0
2020-Sep-17 11:59N 50°36' W 002°23'0 0.0
2020-Sep-17 07:59N 50°36' W 002°23'0 0.0
2020-Sep-17 07:23N 50°36' W 002°23'0 0.1
2020-Sep-17 06:59N 50°36' W 002°23'0 0.0
2020-Sep-17 03:11N 50°36' W 002°23'0 0.0
2020-Sep-17 01:26N 50°36' W 002°23'0 0.0
2020-Sep-17 00:11N 50°36' W 002°23'0 0.0
2020-Sep-16 20:02N 50°36' W 002°23'0 0.0
2020-Sep-16 18:26N 50°36' W 002°23'0 0.0
2020-Sep-16 17:47N 50°36' W 002°23'0 0.0
2020-Sep-16 16:59N 50°36' W 002°23'0 0.0
2020-Sep-16 16:29N 50°36' W 002°23'0 0.0
2020-Sep-16 06:58N 50°36' W 002°22'0 0.0
2020-Sep-16 04:58N 50°36' W 002°22'0 0.0
2020-Sep-16 04:25N 50°36' W 002°23'0 0.0
2020-Sep-16 03:58N 50°36' W 002°22'0 0.0
2020-Sep-16 02:58N 50°36' W 002°23'0 0.0
2020-Sep-15 23:58N 50°36' W 002°22'0 0.0
2020-Sep-15 23:28N 50°36' W 002°22'0 0.0
2020-Sep-15 22:25N 50°36' W 002°22'0 0.0
2020-Sep-15 20:28N 50°36' W 002°22'  

Dump ship's entire track history